createdAt,value
2022-09-09T00:00:50.900Z,97271.13
2022-09-09T00:03:23.632Z,97261.03
2022-09-09T00:06:00.474Z,97272.19
2022-09-09T00:08:48.501Z,97264.34
2022-09-09T00:11:30.714Z,97261.34
2022-09-09T00:14:03.830Z,97262.47
2022-09-09T00:16:36.235Z,97264.50
2022-09-09T00:19:14.748Z,97259.00
2022-09-09T00:22:05.895Z,97269.94
2022-09-09T00:24:55.039Z,97269.19
2022-09-09T00:27:46.650Z,97262.59
2022-09-09T00:30:26.136Z,97268.47
2022-09-09T00:33:01.587Z,97256.81
2022-09-09T00:35:41.067Z,97264.16
2022-09-09T00:38:18.221Z,97271.50
2022-09-09T00:40:51.637Z,97271.88
2022-09-09T00:43:32.251Z,97268.44
2022-09-09T00:46:11.710Z,97269.16
2022-09-09T00:49:25.021Z,97279.00
2022-09-09T00:52:00.619Z,97278.53
2022-09-09T00:54:49.752Z,97275.59
2022-09-09T00:57:26.654Z,97269.16
2022-09-09T01:00:07.101Z,97276.69
2022-09-09T01:02:45.776Z,97272.84
2022-09-09T01:05:23.550Z,97271.91
2022-09-09T01:07:55.145Z,97274.22
2022-09-09T01:10:52.402Z,97281.91
2022-09-09T01:13:31.832Z,97272.34
2022-09-09T01:16:02.196Z,97275.53
2022-09-09T01:18:35.806Z,97270.59
2022-09-09T01:21:34.348Z,97262.78
2022-09-09T01:24:23.646Z,97263.78
2022-09-09T01:26:56.236Z,97259.50
2022-09-09T01:29:24.787Z,97258.56
2022-09-09T01:32:01.103Z,97263.53
2022-09-09T01:34:42.822Z,97252.41
2022-09-09T01:37:14.785Z,97255.94
2022-09-09T01:39:45.245Z,97255.66
2022-09-09T01:42:16.994Z,97257.16
2022-09-09T01:44:44.417Z,97251.78
2022-09-09T01:47:12.111Z,97257.09
2022-09-09T01:49:39.435Z,97251.84
2022-09-09T01:52:07.331Z,97250.53
2022-09-09T01:54:35.412Z,97250.53
2022-09-09T01:57:20.107Z,97239.06
2022-09-09T01:59:59.050Z,97249.06
2022-09-09T02:02:35.850Z,97249.28
2022-09-09T02:05:16.327Z,97245.31
2022-09-09T02:07:53.019Z,97247.69
2022-09-09T02:10:51.899Z,97244.50
2022-09-09T02:13:22.851Z,97251.75
2022-09-09T02:16:25.887Z,97252.28
2022-09-09T02:19:05.395Z,97245.66
2022-09-09T02:21:34.084Z,97243.66
2022-09-09T02:24:05.851Z,97235.03
2022-09-09T02:26:36.967Z,97228.72
2022-09-09T02:29:08.080Z,97226.44
2022-09-09T02:31:37.968Z,97235.03
2022-09-09T02:34:13.481Z,97242.38
2022-09-09T02:36:44.771Z,97234.75
2022-09-09T02:39:12.311Z,97233.97
2022-09-09T02:41:42.848Z,97229.47
2022-09-09T02:44:20.828Z,97235.50
2022-09-09T02:47:00.420Z,97232.19
2022-09-09T02:49:41.361Z,97223.56
2022-09-09T02:52:23.757Z,97216.31
2022-09-09T02:54:56.740Z,97232.59
2022-09-09T02:57:33.535Z,97229.44
2022-09-09T03:00:01.619Z,97235.81
2022-09-09T03:02:29.128Z,97232.03
2022-09-09T03:04:56.235Z,97230.38
2022-09-09T03:07:26.559Z,97240.84
2022-09-09T03:09:56.131Z,97231.72
2022-09-09T03:12:23.611Z,97233.19
2022-09-09T03:14:54.691Z,97231.25
2022-09-09T03:17:22.512Z,97228.94
2022-09-09T03:19:50.830Z,97229.06
2022-09-09T03:22:17.825Z,97234.06
2022-09-09T03:24:44.857Z,97239.06
2022-09-09T03:27:11.707Z,97232.09
2022-09-09T03:29:38.842Z,97237.75
2022-09-09T03:32:05.966Z,97238.59
2022-09-09T03:34:33.321Z,97230.63
2022-09-09T03:37:00.197Z,97229.94
2022-09-09T03:39:27.371Z,97232.31
2022-09-09T03:41:54.384Z,97238.44
2022-09-09T03:44:21.375Z,97245.75
2022-09-09T03:46:48.382Z,97240.94
2022-09-09T03:49:15.412Z,97231.47
2022-09-09T03:51:43.197Z,97241.28
2022-09-09T03:54:11.552Z,97244.78
2022-09-09T03:56:38.544Z,97255.75
2022-09-09T03:59:05.768Z,97242.28
2022-09-09T04:01:32.798Z,97257.06
2022-09-09T04:03:59.946Z,97250.44
2022-09-09T04:06:27.327Z,97254.91
2022-09-09T04:08:54.494Z,97253.41
2022-09-09T04:11:21.877Z,97250.72
2022-09-09T04:13:48.996Z,97257.38
2022-09-09T04:16:16.392Z,97258.22
2022-09-09T04:18:44.209Z,97259.06
2022-09-09T04:21:12.365Z,97253.41
2022-09-09T04:23:40.531Z,97259.72
2022-09-09T04:26:07.867Z,97261.03
2022-09-09T04:28:36.981Z,97264.19
2022-09-09T04:31:11.003Z,97266.69
2022-09-09T04:33:40.370Z,97265.00
2022-09-09T04:36:08.611Z,97262.34
2022-09-09T04:38:35.893Z,97251.41
2022-09-09T04:41:02.867Z,97261.50
2022-09-09T04:43:32.320Z,97252.03
2022-09-09T04:46:00.705Z,97246.34
2022-09-09T04:48:28.668Z,97246.16
2022-09-09T04:50:58.107Z,97246.31
2022-09-09T04:53:26.593Z,97250.78
2022-09-09T04:56:02.590Z,97252.91
2022-09-09T04:58:30.903Z,97251.22
2022-09-09T05:01:11.502Z,97254.97
2022-09-09T05:03:38.949Z,97262.06
2022-09-09T05:06:14.054Z,97260.03
2022-09-09T05:08:59.768Z,97262.78
2022-09-09T05:11:29.626Z,97257.88
2022-09-09T05:13:57.995Z,97255.16
2022-09-09T05:16:25.740Z,97260.72
2022-09-09T05:18:52.879Z,97259.84
2022-09-09T05:21:21.790Z,97261.81
2022-09-09T05:23:49.059Z,97265.22
2022-09-09T05:26:19.211Z,97256.44
2022-09-09T05:28:47.393Z,97245.09
2022-09-09T05:31:15.723Z,97249.78
2022-09-09T05:33:47.137Z,97250.16
2022-09-09T05:36:17.084Z,97240.13
2022-09-09T05:38:45.567Z,97239.13
2022-09-09T05:41:16.759Z,97241.19
2022-09-09T05:43:48.384Z,97226.53
2022-09-09T05:46:18.678Z,97223.22
2022-09-09T05:48:47.586Z,97224.94
2022-09-09T05:51:19.388Z,97222.03
2022-09-09T05:53:47.114Z,97222.03
2022-09-09T05:56:17.600Z,97221.97
2022-09-09T05:58:50.899Z,97211.53
2022-09-09T06:01:21.191Z,97210.91
2022-09-09T06:03:49.949Z,97206.53
2022-09-09T06:06:28.825Z,97203.72
2022-09-09T06:08:59.389Z,97197.97
2022-09-09T06:11:29.297Z,97192.56
2022-09-09T06:13:56.238Z,97181.25
2022-09-09T06:16:25.565Z,97184.03
2022-09-09T06:18:54.336Z,97190.91
2022-09-09T06:21:24.800Z,97184.81
2022-09-09T06:23:58.973Z,97185.50
2022-09-09T06:26:31.521Z,97185.03
2022-09-09T06:28:59.412Z,97172.84
2022-09-09T06:31:31.745Z,97174.84
2022-09-09T06:34:00.072Z,97174.63
2022-09-09T06:36:34.363Z,97175.69
2022-09-09T06:39:02.028Z,97188.03
2022-09-09T06:41:32.123Z,97174.50
2022-09-09T06:43:59.463Z,97169.06
2022-09-09T06:46:31.447Z,97168.03
2022-09-09T06:49:00.194Z,97171.28
2022-09-09T06:51:32.661Z,97170.38
2022-09-09T06:54:01.574Z,97166.81
2022-09-09T06:56:31.809Z,97164.00
2022-09-09T06:59:05.212Z,97157.59
2022-09-09T07:01:34.241Z,97157.38
2022-09-09T07:04:02.319Z,97159.88
2022-09-09T07:06:32.254Z,97167.19
2022-09-09T07:09:02.623Z,97166.81
2022-09-09T07:11:32.716Z,97171.84
2022-09-09T07:14:00.998Z,97165.19
2022-09-09T07:16:29.196Z,97161.69
2022-09-09T07:18:59.438Z,97164.44
2022-09-09T07:21:28.339Z,97143.28
2022-09-09T07:23:55.781Z,97153.56
2022-09-09T07:26:28.112Z,97157.41
2022-09-09T07:28:57.261Z,97146.59
2022-09-09T07:31:33.160Z,97149.28
2022-09-09T07:34:01.437Z,97147.13
2022-09-09T07:36:33.402Z,97165.56
2022-09-09T07:39:14.657Z,97169.88
2022-09-09T07:41:44.304Z,97171.84
2022-09-09T07:44:26.010Z,97172.91
2022-09-09T07:46:53.429Z,97165.03
2022-09-09T07:49:27.436Z,97169.94
2022-09-09T07:52:03.340Z,97187.06
2022-09-09T07:54:30.409Z,97176.22
2022-09-09T07:56:57.563Z,97185.19
2022-09-09T07:59:25.351Z,97177.03
2022-09-09T08:01:56.056Z,97182.16
2022-09-09T08:04:25.222Z,97178.13
2022-09-09T08:06:55.820Z,97184.63
2022-09-09T08:09:26.371Z,97181.91
2022-09-09T08:11:53.284Z,97178.66
2022-09-09T08:14:20.714Z,97169.69
2022-09-09T08:16:50.524Z,97165.59
2022-09-09T08:19:18.538Z,97167.19
2022-09-09T08:21:46.194Z,97157.41
2022-09-09T08:24:15.910Z,97153.00
2022-09-09T08:26:45.446Z,97152.19
2022-09-09T08:29:14.363Z,97156.56
2022-09-09T08:31:46.183Z,97156.22
2022-09-09T08:34:13.529Z,97150.78
2022-09-09T08:36:45.799Z,97147.53
2022-09-09T08:39:16.251Z,97145.44
2022-09-09T08:42:04.542Z,97143.28
2022-09-09T08:44:48.883Z,97140.56
2022-09-09T08:47:19.296Z,97147.66
2022-09-09T08:49:57.046Z,97148.19
2022-09-09T08:52:32.242Z,97138.41
2022-09-09T08:55:26.532Z,97137.31
2022-09-09T08:57:57.174Z,97141.66
2022-09-09T09:00:30.959Z,97137.31
2022-09-09T09:03:14.173Z,97144.84
2022-09-09T09:06:23.978Z,97143.72
2022-09-09T09:09:11.761Z,97139.66
2022-09-09T09:11:48.651Z,97148.63
2022-09-09T09:14:24.732Z,97146.47
2022-09-09T09:17:08.555Z,97134.25
2022-09-09T09:19:39.685Z,97133.19
2022-09-09T09:22:32.816Z,97133.47
2022-09-09T09:25:06.470Z,97127.72
2022-09-09T09:27:53.516Z,97130.97
2022-09-09T09:30:30.026Z,97134.22
2022-09-09T09:33:24.968Z,97137.22
2022-09-09T09:35:52.082Z,97138.34
2022-09-09T09:41:08.211Z,97124.09
2022-09-09T09:43:37.793Z,97121.94
2022-09-09T09:46:17.625Z,97128.47
2022-09-09T09:48:46.840Z,97123.59
2022-09-09T09:51:19.357Z,97127.38
2022-09-09T09:53:46.960Z,97122.56
2022-09-09T09:56:27.387Z,97116.09
2022-09-09T09:58:56.605Z,97111.16
2022-09-09T10:01:34.439Z,97115.16
2022-09-09T10:04:19.915Z,97112.72
2022-09-09T10:06:47.959Z,97113.53
2022-09-09T10:09:27.221Z,97122.03
2022-09-09T10:11:54.154Z,97124.47
2022-09-09T10:14:26.560Z,97128.53
2022-09-09T10:17:00.890Z,97135.03
2022-09-09T10:19:34.879Z,97124.81
2022-09-09T10:22:31.113Z,97121.25
2022-09-09T10:25:13.450Z,97118.28
2022-09-09T10:27:55.516Z,97123.72
2022-09-09T10:30:38.835Z,97121.28
2022-09-09T10:33:33.656Z,97120.41
2022-09-09T10:36:20.815Z,97114.72
2022-09-09T10:38:51.645Z,97112.84
2022-09-09T10:41:27.474Z,97111.47
2022-09-09T10:44:21.132Z,97108.16
2022-09-09T10:47:11.511Z,97105.97
2022-09-09T10:50:02.203Z,97115.50
2022-09-09T10:52:56.157Z,97112.78
2022-09-09T10:55:38.922Z,97105.09
2022-09-09T10:58:08.834Z,97112.06
2022-09-09T11:00:53.729Z,97111.31
2022-09-09T11:03:30.768Z,97106.94
2022-09-09T11:06:08.127Z,97103.94
2022-09-09T11:08:40.434Z,97106.06
2022-09-09T11:11:41.067Z,97114.75
2022-09-09T11:14:27.314Z,97103.34
2022-09-09T11:17:03.738Z,97103.94
2022-09-09T11:19:45.414Z,97105.00
2022-09-09T11:22:28.984Z,97102.25
2022-09-09T11:25:06.901Z,97098.88
2022-09-09T11:28:17.387Z,97077.09
2022-09-09T11:31:03.248Z,97095.53
2022-09-09T11:33:54.844Z,97086.34
2022-09-09T11:36:31.575Z,97079.31
2022-09-09T11:39:04.304Z,97075.50
2022-09-09T11:41:37.908Z,97078.25
2022-09-09T11:44:28.067Z,97073.00
2022-09-09T11:46:55.430Z,97073.50
2022-09-09T11:49:29.976Z,97079.81
2022-09-09T11:51:57.191Z,97078.13
2022-09-09T11:54:32.057Z,97071.00
2022-09-09T11:56:59.994Z,97064.97
2022-09-09T11:59:30.371Z,97074.25
2022-09-09T12:02:20.058Z,97059.88
2022-09-09T12:05:10.854Z,97064.13
2022-09-09T12:07:43.982Z,97060.94
2022-09-09T12:10:41.257Z,97055.88
2022-09-09T12:13:26.257Z,97069.59
2022-09-09T12:15:56.316Z,97069.25
2022-09-09T12:18:37.968Z,97062.63
2022-09-09T12:21:14.624Z,97058.47
2022-09-09T12:23:52.023Z,97051.63
2022-09-09T12:26:37.110Z,97052.19
2022-09-09T12:29:14.420Z,97048.72
2022-09-09T12:31:52.736Z,97053.63
2022-09-09T12:34:45.723Z,97053.19
2022-09-09T12:37:34.281Z,97045.66
2022-09-09T12:40:05.090Z,97037.53
2022-09-09T12:42:41.041Z,97044.38
2022-09-09T12:45:21.988Z,97032.16
2022-09-09T12:47:55.230Z,97036.50
2022-09-09T12:50:34.951Z,97032.41
2022-09-09T12:53:19.088Z,97032.69
2022-09-09T12:56:05.843Z,97033.50
2022-09-09T12:58:36.043Z,97027.47
2022-09-09T13:01:08.133Z,97029.38
2022-09-09T13:03:44.634Z,97028.03
2022-09-09T13:06:15.548Z,97041.03
2022-09-09T13:08:42.624Z,97033.97
2022-09-09T13:11:17.423Z,97032.34
2022-09-09T13:13:52.954Z,97036.09
2022-09-09T13:16:43.037Z,97033.28
2022-09-09T13:19:18.046Z,97034.31
2022-09-09T13:21:45.553Z,97029.41
2022-09-09T13:24:43.717Z,97024.78
2022-09-09T13:27:40.166Z,97028.66
2022-09-09T13:30:26.657Z,97025.22
2022-09-09T13:33:24.595Z,97025.22
2022-09-09T13:36:07.888Z,97024.41
2022-09-09T13:38:39.630Z,97015.41
2022-09-09T13:41:09.461Z,97018.69
2022-09-09T13:43:50.969Z,97010.56
2022-09-09T13:46:32.725Z,97018.44
2022-09-09T13:49:11.834Z,97027.66
2022-09-09T13:51:41.356Z,97020.06
2022-09-09T13:54:11.289Z,97018.16
2022-09-09T13:56:40.213Z,97022.53
2022-09-09T13:59:11.938Z,97017.91
2022-09-09T14:01:39.203Z,97014.97
2022-09-09T14:04:10.183Z,97012.28
2022-09-09T14:06:40.621Z,97010.66
2022-09-09T14:09:10.039Z,97011.19
2022-09-09T14:11:36.994Z,97018.50
2022-09-09T14:14:04.172Z,97011.16
2022-09-09T14:16:34.100Z,97013.31
2022-09-09T14:19:01.156Z,97010.06
2022-09-09T14:21:29.483Z,97015.19
2022-09-09T14:23:56.475Z,97020.34
2022-09-09T14:26:24.639Z,97018.97
2022-09-09T14:28:56.381Z,97020.31
2022-09-09T14:31:24.826Z,97017.59
2022-09-09T14:33:52.701Z,97024.03
2022-09-09T14:36:20.058Z,97021.84
2022-09-09T14:38:47.700Z,97025.63
2022-09-09T14:41:20.890Z,97020.19
2022-09-09T14:43:48.107Z,97020.66
2022-09-09T14:46:17.664Z,97028.47
2022-09-09T14:48:47.652Z,97025.94
2022-09-09T14:51:26.135Z,97028.03
2022-09-09T14:53:54.653Z,97026.91
2022-09-09T14:56:25.616Z,97029.06
2022-09-09T14:58:56.618Z,97039.06
2022-09-09T15:01:25.485Z,97039.91
2022-09-09T15:04:01.098Z,97042.06
2022-09-09T15:06:30.511Z,97040.38
2022-09-09T15:09:01.389Z,97047.63
2022-09-09T15:11:31.728Z,97049.47
2022-09-09T15:13:59.428Z,97053.78
2022-09-09T15:16:29.366Z,97047.47
2022-09-09T15:18:58.707Z,97048.16
2022-09-09T15:21:29.560Z,97051.84
2022-09-09T15:23:57.735Z,97045.78
2022-09-09T15:26:25.342Z,97044.03
2022-09-09T15:28:52.597Z,97043.66
2022-09-09T15:31:31.694Z,97045.75
2022-09-09T15:34:04.265Z,97051.94
2022-09-09T15:36:39.756Z,97056.69
2022-09-09T15:39:11.062Z,97053.34
2022-09-09T15:41:38.221Z,97052.78
2022-09-09T15:44:05.746Z,97052.72
2022-09-09T15:46:38.660Z,97060.22
2022-09-09T15:49:23.322Z,97059.91
2022-09-09T15:51:56.201Z,97059.25
2022-09-09T15:54:25.909Z,97057.06
2022-09-09T15:56:59.672Z,97064.03
2022-09-09T15:59:54.630Z,97066.91
2022-09-09T16:02:22.557Z,97060.97
2022-09-09T16:04:50.059Z,97069.38
2022-09-09T16:07:17.506Z,97070.94
2022-09-09T16:09:45.105Z,97072.50
2022-09-09T16:12:23.388Z,97059.91
2022-09-09T16:16:09.731Z,97059.34
2022-09-09T16:18:22.055Z,97070.00
2022-09-09T16:20:56.421Z,97067.38
2022-09-09T16:26:49.627Z,97062.81
2022-09-09T16:29:18.553Z,97072.31
2022-09-09T16:31:47.446Z,97080.09
2022-09-09T16:34:15.978Z,97082.63
2022-09-09T16:36:44.973Z,97079.81
2022-09-09T16:39:14.788Z,97075.91
2022-09-09T16:41:43.562Z,97074.63
2022-09-09T16:44:13.453Z,97081.50
2022-09-09T16:46:43.853Z,97081.28
2022-09-09T16:49:13.358Z,97073.78
2022-09-09T16:51:47.030Z,97071.22
2022-09-09T16:54:15.528Z,97081.31
2022-09-09T16:56:45.111Z,97085.19
2022-09-09T16:59:20.549Z,97085.34
2022-09-09T17:01:49.794Z,97079.75
2022-09-09T17:04:21.993Z,97076.34
2022-09-09T17:06:51.065Z,97085.63
2022-09-09T17:09:19.490Z,97090.06
2022-09-09T17:11:52.176Z,97081.97
2022-09-09T17:14:21.448Z,97083.13
2022-09-09T17:17:30.578Z,97081.97
2022-09-09T17:20:21.083Z,97083.25
2022-09-09T17:22:48.446Z,97094.47
2022-09-09T17:25:28.257Z,97090.72
2022-09-09T17:27:55.398Z,97091.63
2022-09-09T17:30:23.547Z,97095.69
2022-09-09T17:33:18.794Z,97094.72
2022-09-09T17:35:46.467Z,97104.84
2022-09-09T17:38:13.818Z,97107.50
2022-09-09T17:40:41.119Z,97101.75
2022-09-09T17:43:11.443Z,97112.81
2022-09-09T17:45:59.230Z,97112.22
2022-09-09T17:48:27.439Z,97120.31
2022-09-09T17:51:05.805Z,97117.91
2022-09-09T17:53:39.259Z,97107.91
2022-09-09T17:56:27.679Z,97116.72
2022-09-09T17:58:55.192Z,97113.72
2022-09-09T18:01:23.650Z,97119.09
2022-09-09T18:03:52.111Z,97120.13
2022-09-09T18:06:22.544Z,97131.78
2022-09-09T18:08:57.650Z,97138.88
2022-09-09T18:11:43.884Z,97140.16
2022-09-09T18:14:15.779Z,97139.38
2022-09-09T18:16:43.189Z,97144.44
2022-09-09T18:19:14.126Z,97152.72
2022-09-09T18:21:43.179Z,97147.25
2022-09-09T18:24:16.007Z,97150.31
2022-09-09T18:26:43.408Z,97147.91
2022-09-09T18:29:14.441Z,97152.06
2022-09-09T18:31:54.245Z,97155.84
2022-09-09T18:34:23.457Z,97153.84
2022-09-09T18:37:00.209Z,97161.28
2022-09-09T18:39:29.585Z,97153.88
2022-09-09T18:42:01.813Z,97162.97
2022-09-09T18:44:32.887Z,97158.88
2022-09-09T18:47:00.509Z,97159.72
2022-09-09T18:49:27.404Z,97168.78
2022-09-09T18:51:54.600Z,97159.16
2022-09-09T18:54:25.050Z,97166.00
2022-09-09T18:56:54.462Z,97173.44
2022-09-09T18:59:24.407Z,97175.50
2022-09-09T19:01:55.726Z,97175.50
2022-09-09T19:04:32.423Z,97170.56
2022-09-09T19:07:00.308Z,97167.06
2022-09-09T19:09:31.923Z,97151.00
2022-09-09T19:12:00.958Z,97166.06
2022-09-09T19:14:28.931Z,97158.22
2022-09-09T19:16:56.968Z,97155.75
2022-09-09T19:19:27.989Z,97152.91
2022-09-09T19:21:58.709Z,97163.19
2022-09-09T19:24:31.830Z,97150.63
2022-09-09T19:27:06.121Z,97144.66
2022-09-09T19:29:36.759Z,97151.44
2022-09-09T19:32:51.751Z,97138.66
2022-09-09T19:34:52.642Z,97145.84
2022-09-09T19:37:20.220Z,97145.41
2022-09-09T19:39:48.509Z,97145.81
2022-09-09T19:42:25.369Z,97144.97
2022-09-09T19:44:52.533Z,97139.88
2022-09-09T19:47:20.256Z,97131.44
2022-09-09T19:49:52.683Z,97133.69
2022-09-09T19:52:29.450Z,97130.16
2022-09-09T19:54:56.605Z,97128.31
2022-09-09T19:57:23.916Z,97129.28
2022-09-09T19:59:50.913Z,97125.59
2022-09-09T20:02:17.886Z,97124.97
2022-09-09T20:04:45.075Z,97126.84
2022-09-09T20:07:12.585Z,97123.91
2022-09-09T20:09:39.581Z,97122.28
2022-09-09T20:12:06.736Z,97118.38
2022-09-09T20:14:39.146Z,97118.16
2022-09-09T20:17:07.191Z,97110.53
2022-09-09T20:19:35.069Z,97108.69
2022-09-09T20:22:02.111Z,97118.13
2022-09-09T20:24:29.124Z,97104.34
2022-09-09T20:26:56.715Z,97113.19
2022-09-09T20:29:23.852Z,97107.19
2022-09-09T20:31:50.895Z,97108.25
2022-09-09T20:34:22.049Z,97107.75
2022-09-09T20:36:50.489Z,97102.59
2022-09-09T20:39:22.715Z,97108.31
2022-09-09T20:41:50.457Z,97101.91
2022-09-09T20:44:18.517Z,97106.78
2022-09-09T20:46:51.063Z,97107.16
2022-09-09T20:49:20.840Z,97108.34
2022-09-09T20:51:50.650Z,97115.88
2022-09-09T20:54:23.634Z,97108.91
2022-09-09T20:56:52.439Z,97102.28
2022-09-09T20:59:21.731Z,97103.56
2022-09-09T21:01:49.086Z,97092.25
2022-09-09T21:04:23.063Z,97101.91
2022-09-09T21:06:51.799Z,97109.47
2022-09-09T21:09:19.900Z,97098.78
2022-09-09T21:11:49.999Z,97088.75
2022-09-09T21:14:18.806Z,97082.13
2022-09-09T21:16:46.371Z,97075.75
2022-09-09T21:19:13.473Z,97094.66
2022-09-09T21:21:40.859Z,97086.44
2022-09-09T21:24:08.121Z,97088.06
2022-09-09T21:26:36.025Z,97093.63
2022-09-09T21:29:04.178Z,97092.16
2022-09-09T21:31:31.680Z,97088.63
2022-09-09T21:33:59.695Z,97088.00
2022-09-09T21:36:28.707Z,97092.91
2022-09-09T21:38:56.998Z,97086.75
2022-09-09T21:41:23.951Z,97088.38
2022-09-09T21:43:54.425Z,97088.19
2022-09-09T21:46:23.648Z,97087.09
2022-09-09T21:48:51.273Z,97082.53
2022-09-09T21:51:19.182Z,97084.44
2022-09-09T21:53:46.760Z,97087.28
2022-09-09T21:56:17.576Z,97083.34
2022-09-09T21:58:45.487Z,97084.97
2022-09-09T22:01:15.848Z,97083.31
2022-09-09T22:03:44.194Z,97087.63
2022-09-09T22:06:14.145Z,97082.91
2022-09-09T22:08:41.274Z,97086.38
2022-09-09T22:11:16.912Z,97085.34
2022-09-09T22:13:47.511Z,97083.25
2022-09-09T22:16:19.312Z,97089.41
2022-09-09T22:18:55.177Z,97077.94
2022-09-09T22:21:23.059Z,97079.78
2022-09-09T22:23:59.718Z,97071.78
2022-09-09T22:26:29.230Z,97079.50
2022-09-09T22:28:57.903Z,97076.47
2022-09-09T22:31:29.456Z,97075.72
2022-09-09T22:33:56.504Z,97063.16
2022-09-09T22:36:24.509Z,97069.72
2022-09-09T22:38:52.090Z,97054.13
2022-09-09T22:41:20.223Z,97058.03
2022-09-09T22:43:48.141Z,97071.53
2022-09-09T22:46:15.602Z,97059.66
2022-09-09T22:48:44.072Z,97058.19
2022-09-09T22:51:13.194Z,97054.50
2022-09-09T22:53:42.072Z,97042.19
2022-09-09T22:56:13.713Z,97053.66
2022-09-09T22:58:40.575Z,97051.22
2022-09-09T23:01:17.548Z,97046.03
2022-09-09T23:03:48.510Z,97050.50
2022-09-09T23:06:22.536Z,97044.91
2022-09-09T23:08:58.450Z,97037.56
2022-09-09T23:11:30.653Z,97040.00
2022-09-09T23:14:00.759Z,97039.56
2022-09-09T23:16:34.160Z,97039.09
2022-09-09T23:19:02.251Z,97033.31
2022-09-09T23:21:30.529Z,97039.47
2022-09-09T23:23:59.637Z,97039.72
2022-09-09T23:26:29.082Z,97032.97
2022-09-09T23:28:58.745Z,97025.94
2022-09-09T23:31:27.487Z,97033.00
2022-09-09T23:33:55.191Z,97025.13
2022-09-09T23:36:25.113Z,97028.63
2022-09-09T23:38:56.512Z,97029.50
2022-09-09T23:41:23.760Z,97034.38
2022-09-09T23:43:52.748Z,97019.06
2022-09-09T23:46:23.001Z,97024.75
2022-09-09T23:48:52.007Z,97025.41
2022-09-09T23:51:24.211Z,97025.00
2022-09-09T23:53:53.635Z,97018.91
2022-09-09T23:56:22.750Z,97022.66
2022-09-09T23:58:51.271Z,97011.16
